createdAt,value
2023-02-27T00:02:23.138Z,66.18
2023-02-27T00:04:58.111Z,66.48
2023-02-27T00:07:31.481Z,66.56
2023-02-27T00:10:05.279Z,66.62
2023-02-27T00:12:39.212Z,66.11
2023-02-27T00:15:15.599Z,65.22
2023-02-27T00:17:49.404Z,65.37
2023-02-27T00:20:23.405Z,64.81
2023-02-27T00:22:56.962Z,64.81
2023-02-27T00:25:30.604Z,64.75
2023-02-27T00:28:04.448Z,64.97
2023-02-27T00:30:38.008Z,65.06
2023-02-27T00:33:11.586Z,65.03
2023-02-27T00:35:46.405Z,64.84
2023-02-27T00:38:20.290Z,64.81
2023-02-27T00:40:53.951Z,64.82
2023-02-27T00:43:27.496Z,65.10
2023-02-27T00:46:02.182Z,65.28
2023-02-27T00:48:35.457Z,65.43
2023-02-27T00:51:09.334Z,65.43
2023-02-27T00:53:42.509Z,65.52
2023-02-27T00:56:17.559Z,65.65
2023-02-27T00:58:50.795Z,65.84
2023-02-27T01:01:26.127Z,66.08
2023-02-27T01:04:01.280Z,66.00
2023-02-27T01:06:36.980Z,66.08
2023-02-27T01:09:10.192Z,66.08
2023-02-27T01:11:43.749Z,66.31
2023-02-27T01:14:17.348Z,66.06
2023-02-27T01:16:51.585Z,66.08
2023-02-27T01:19:25.531Z,65.70
2023-02-27T01:21:58.927Z,65.94
2023-02-27T01:24:32.658Z,65.86
2023-02-27T01:27:06.706Z,65.61
2023-02-27T01:29:42.286Z,65.81
2023-02-27T01:32:16.318Z,65.81
2023-02-27T01:34:50.001Z,65.99
2023-02-27T01:37:24.480Z,65.68
2023-02-27T01:39:57.991Z,65.67
2023-02-27T01:42:32.686Z,65.50
2023-02-27T01:45:22.528Z,65.74
2023-02-27T01:47:59.578Z,65.93
2023-02-27T01:50:34.971Z,66.07
2023-02-27T01:53:12.678Z,66.00
2023-02-27T01:55:47.475Z,66.08
2023-02-27T01:58:21.052Z,66.20
2023-02-27T02:00:54.906Z,66.04
2023-02-27T02:06:13.833Z,66.15
2023-02-27T02:08:50.097Z,66.19
2023-02-27T02:11:25.860Z,66.47
2023-02-27T02:14:02.799Z,66.77
2023-02-27T02:16:59.644Z,66.80
2023-02-27T02:19:52.279Z,66.62
2023-02-27T02:23:07.557Z,66.64
2023-02-27T02:26:24.938Z,66.69
2023-02-27T02:29:40.435Z,66.66
2023-02-27T02:32:46.871Z,66.76
2023-02-27T02:36:08.547Z,66.49
2023-02-27T02:39:03.580Z,66.69
2023-02-27T02:41:43.600Z,66.96
2023-02-27T02:44:23.301Z,67.16
2023-02-27T02:49:46.172Z,67.26
2023-02-27T02:52:23.046Z,67.18
2023-02-27T02:54:59.630Z,67.13
2023-02-27T02:57:37.494Z,67.17
2023-02-27T03:00:15.441Z,67.16
2023-02-27T03:02:52.004Z,67.17
2023-02-27T03:05:28.550Z,67.22
2023-02-27T03:08:04.696Z,67.18
2023-02-27T03:10:41.435Z,67.27
2023-02-27T03:13:18.509Z,67.30
2023-02-27T03:15:55.855Z,67.13
2023-02-27T03:18:32.056Z,67.28
2023-02-27T03:21:08.606Z,67.34
2023-02-27T03:23:45.076Z,67.52
2023-02-27T03:26:21.859Z,67.46
2023-02-27T03:28:59.162Z,67.62
2023-02-27T03:31:37.612Z,67.73
2023-02-27T03:34:15.990Z,67.73
2023-02-27T03:36:53.259Z,67.79
2023-02-27T03:39:31.202Z,67.88
2023-02-27T03:42:08.663Z,67.80
2023-02-27T03:45:03.070Z,67.88
2023-02-27T03:47:37.705Z,67.96
2023-02-27T03:50:13.076Z,67.97
2023-02-27T03:52:47.780Z,67.94
2023-02-27T03:55:23.301Z,68.03
2023-02-27T03:57:57.151Z,68.02
2023-02-27T04:00:31.105Z,68.01
2023-02-27T04:03:06.435Z,68.07
2023-02-27T04:05:40.204Z,68.19
2023-02-27T04:08:28.000Z,68.19
2023-02-27T04:11:14.616Z,68.24
2023-02-27T04:13:59.759Z,68.35
2023-02-27T04:17:09.366Z,68.35
2023-02-27T04:19:50.276Z,68.35
2023-02-27T04:22:34.038Z,68.29
2023-02-27T04:25:32.913Z,68.53
2023-02-27T04:28:13.280Z,68.54
2023-02-27T04:30:52.207Z,68.51
2023-02-27T04:33:30.944Z,68.57
2023-02-27T04:36:07.170Z,68.50
2023-02-27T04:38:43.610Z,68.59
2023-02-27T04:41:20.318Z,68.71
2023-02-27T04:43:55.348Z,68.79
2023-02-27T04:46:30.699Z,68.78
2023-02-27T04:49:07.059Z,68.79
2023-02-27T04:51:43.282Z,68.90
2023-02-27T04:54:19.506Z,68.94
2023-02-27T04:56:55.889Z,69.01
2023-02-27T04:59:32.445Z,68.98
2023-02-27T05:02:10.606Z,68.94
2023-02-27T05:04:46.459Z,68.97
2023-02-27T05:07:22.680Z,69.06
2023-02-27T05:09:59.589Z,68.84
2023-02-27T05:12:38.293Z,68.93
2023-02-27T05:15:14.859Z,68.96
2023-02-27T05:17:50.636Z,68.95
2023-02-27T05:20:28.968Z,68.97
2023-02-27T05:23:04.965Z,68.84
2023-02-27T05:25:41.344Z,69.01
2023-02-27T05:28:17.505Z,69.11
2023-02-27T05:30:54.239Z,69.08
2023-02-27T05:33:31.411Z,69.11
2023-02-27T05:36:07.909Z,69.14
2023-02-27T05:38:44.465Z,69.25
2023-02-27T05:41:21.125Z,69.09
2023-02-27T05:43:57.611Z,69.06
2023-02-27T05:46:33.833Z,69.04
2023-02-27T05:49:10.044Z,68.96
2023-02-27T05:51:46.425Z,69.01
2023-02-27T05:54:25.102Z,68.97
2023-02-27T05:57:01.255Z,69.04
2023-02-27T05:59:39.188Z,69.01
2023-02-27T06:02:13.825Z,68.84
2023-02-27T06:04:47.332Z,68.85
2023-02-27T06:07:21.203Z,68.89
2023-02-27T06:09:54.618Z,68.85
2023-02-27T06:12:27.655Z,68.40
2023-02-27T06:15:00.747Z,68.48
2023-02-27T06:17:35.192Z,68.47
2023-02-27T06:20:11.623Z,68.44
2023-02-27T06:22:45.418Z,68.39
2023-02-27T06:25:19.389Z,68.44
2023-02-27T06:27:52.964Z,68.69
2023-02-27T06:30:26.986Z,68.64
2023-02-27T06:33:01.182Z,68.64
2023-02-27T06:35:35.335Z,68.57
2023-02-27T06:38:08.907Z,68.39
2023-02-27T06:40:42.744Z,68.15
2023-02-27T06:43:17.745Z,68.12
2023-02-27T06:45:51.222Z,68.05
2023-02-27T06:48:24.803Z,67.96
2023-02-27T06:50:58.897Z,67.99
2023-02-27T06:53:32.574Z,68.11
2023-02-27T06:56:06.881Z,67.93
2023-02-27T06:58:40.603Z,67.81
2023-02-27T07:01:14.780Z,67.61
2023-02-27T07:03:48.076Z,67.69
2023-02-27T07:06:21.774Z,67.74
2023-02-27T07:09:06.350Z,67.66
2023-02-27T07:11:32.117Z,67.56
2023-02-27T07:14:05.804Z,67.30
2023-02-27T07:16:39.402Z,66.76
2023-02-27T07:19:13.291Z,66.92
2023-02-27T07:21:46.633Z,66.95
2023-02-27T07:24:20.452Z,67.15
2023-02-27T07:26:54.278Z,67.26
2023-02-27T07:29:27.677Z,67.38
2023-02-27T07:32:01.776Z,67.37
2023-02-27T07:34:35.143Z,67.12
2023-02-27T07:37:09.152Z,67.21
2023-02-27T07:39:42.876Z,67.26
2023-02-27T07:42:18.114Z,67.32
2023-02-27T07:44:51.647Z,67.15
2023-02-27T07:47:25.018Z,67.16
2023-02-27T07:49:59.193Z,67.17
2023-02-27T07:52:34.556Z,67.14
2023-02-27T07:55:09.486Z,67.13
2023-02-27T07:57:45.838Z,66.96
2023-02-27T08:00:22.288Z,66.98
2023-02-27T08:05:37.954Z,67.03
2023-02-27T08:08:11.764Z,66.61
2023-02-27T08:10:45.354Z,66.42
2023-02-27T08:13:30.086Z,66.17
2023-02-27T08:15:55.180Z,65.98
2023-02-27T08:18:28.544Z,66.00
2023-02-27T08:21:03.748Z,65.81
2023-02-27T08:23:37.871Z,65.81
2023-02-27T08:26:11.307Z,65.47
2023-02-27T08:28:45.000Z,64.92
2023-02-27T08:31:18.728Z,64.81
2023-02-27T08:34:01.110Z,64.78
2023-02-27T08:36:28.026Z,64.94
2023-02-27T08:39:01.773Z,64.92
2023-02-27T08:41:37.246Z,64.58
2023-02-27T08:44:12.059Z,64.69
2023-02-27T08:46:45.588Z,64.51
2023-02-27T08:49:21.563Z,64.24
2023-02-27T08:51:55.171Z,64.38
2023-02-27T08:54:28.964Z,64.11
2023-02-27T08:57:02.057Z,63.73
2023-02-27T08:59:35.816Z,64.08
2023-02-27T09:02:09.278Z,64.35
2023-02-27T09:04:42.619Z,64.42
2023-02-27T09:07:16.081Z,64.19
2023-02-27T09:09:50.137Z,64.23
2023-02-27T09:12:23.617Z,64.37
2023-02-27T09:14:57.005Z,64.16
2023-02-27T09:17:30.506Z,63.70
2023-02-27T09:20:05.072Z,62.96
2023-02-27T09:22:38.876Z,63.15
2023-02-27T09:25:12.853Z,62.79
2023-02-27T09:27:46.383Z,62.49
2023-02-27T09:35:40.304Z,62.31
2023-02-27T09:38:14.050Z,61.81
2023-02-27T09:40:49.172Z,61.87
2023-02-27T09:43:25.496Z,61.40
2023-02-27T09:46:00.315Z,61.34
2023-02-27T09:48:36.632Z,61.37
2023-02-27T09:51:10.562Z,60.28
2023-02-27T09:53:46.882Z,60.16
2023-02-27T09:56:24.014Z,60.21
2023-02-27T09:59:01.771Z,59.37
2023-02-27T10:01:37.535Z,59.42
2023-02-27T10:04:43.682Z,59.91
2023-02-27T10:07:20.736Z,60.23
2023-02-27T10:10:00.781Z,60.86
2023-02-27T10:12:49.828Z,60.21
2023-02-27T10:15:28.106Z,59.57
2023-02-27T10:18:23.598Z,59.63
2023-02-27T10:20:43.103Z,60.35
2023-02-27T10:23:19.458Z,60.95
2023-02-27T10:25:54.037Z,61.23
2023-02-27T10:28:30.610Z,61.31
2023-02-27T10:31:06.156Z,61.41
2023-02-27T10:33:41.188Z,62.02
2023-02-27T10:36:30.637Z,62.45
2023-02-27T10:38:53.224Z,63.10
2023-02-27T10:41:29.006Z,63.07
2023-02-27T10:44:03.412Z,63.44
2023-02-27T10:46:39.171Z,63.55
2023-02-27T10:49:19.236Z,63.45
2023-02-27T10:52:14.205Z,63.07
2023-02-27T10:54:48.866Z,62.19
2023-02-27T10:57:33.661Z,61.45
2023-02-27T11:00:11.329Z,61.72
2023-02-27T11:02:44.623Z,61.67
2023-02-27T11:05:24.493Z,61.69
2023-02-27T11:08:00.188Z,61.71
2023-02-27T11:10:33.871Z,61.52
2023-02-27T11:13:09.976Z,60.58
2023-02-27T11:15:43.881Z,60.40
2023-02-27T11:18:29.308Z,60.71
2023-02-27T11:21:24.457Z,60.69
2023-02-27T11:24:01.087Z,60.61
2023-02-27T11:26:36.621Z,60.71
2023-02-27T11:29:19.165Z,59.92
2023-02-27T11:31:55.324Z,60.13
2023-02-27T11:34:32.101Z,59.70
2023-02-27T11:37:07.765Z,60.30
2023-02-27T11:39:43.873Z,60.09
2023-02-27T11:42:21.728Z,60.35
2023-02-27T11:44:59.851Z,59.85
2023-02-27T11:47:37.896Z,59.15
2023-02-27T11:50:48.836Z,58.49
2023-02-27T11:54:04.935Z,58.32
2023-02-27T11:56:41.400Z,57.99
2023-02-27T11:59:42.675Z,57.80
2023-02-27T12:02:21.843Z,57.82
2023-02-27T12:04:58.969Z,58.73
2023-02-27T12:07:35.618Z,59.05
2023-02-27T12:10:14.344Z,59.03
2023-02-27T12:12:50.980Z,59.02
2023-02-27T12:15:31.561Z,59.58
2023-02-27T12:18:12.451Z,59.88
2023-02-27T12:20:51.412Z,59.55
2023-02-27T12:23:29.648Z,59.34
2023-02-27T12:26:06.447Z,59.50
2023-02-27T12:28:46.199Z,59.45
2023-02-27T12:31:46.525Z,59.32
2023-02-27T12:34:27.285Z,59.49
2023-02-27T12:37:05.017Z,59.15
2023-02-27T12:39:36.855Z,59.77
2023-02-27T12:42:40.188Z,60.28
2023-02-27T12:49:00.439Z,58.96
2023-02-27T12:51:40.752Z,59.22
2023-02-27T12:54:39.688Z,59.60
2023-02-27T12:57:30.034Z,59.85
2023-02-27T13:00:15.082Z,60.31
2023-02-27T13:02:58.727Z,60.46
2023-02-27T13:05:45.809Z,60.76
2023-02-27T13:08:43.466Z,60.67
2023-02-27T13:11:23.972Z,61.05
2023-02-27T13:14:01.986Z,61.37
2023-02-27T13:16:38.127Z,61.17
2023-02-27T13:19:16.324Z,61.54
2023-02-27T13:21:52.695Z,61.66
2023-02-27T13:24:28.317Z,61.59
2023-02-27T13:27:05.430Z,61.57
2023-02-27T13:29:41.726Z,62.09
2023-02-27T13:32:41.248Z,62.00
2023-02-27T13:35:03.629Z,60.95
2023-02-27T13:37:58.126Z,61.34
2023-02-27T13:40:34.415Z,61.35
2023-02-27T13:43:27.050Z,61.56
2023-02-27T13:46:02.443Z,61.95
2023-02-27T13:48:47.448Z,62.32
2023-02-27T13:51:56.803Z,62.47
2023-02-27T13:54:36.926Z,62.28
2023-02-27T13:57:24.383Z,62.08
2023-02-27T14:00:00.957Z,62.13
2023-02-27T14:02:58.399Z,62.27
2023-02-27T14:05:28.749Z,62.09
2023-02-27T14:08:10.538Z,62.23
2023-02-27T14:10:54.106Z,62.19
2023-02-27T14:14:02.299Z,62.15
2023-02-27T14:16:53.502Z,62.45
2023-02-27T14:19:59.697Z,62.48
2023-02-27T14:22:44.983Z,62.51
2023-02-27T14:25:24.768Z,62.60
2023-02-27T14:28:00.530Z,62.67
2023-02-27T14:30:41.680Z,62.88
2023-02-27T14:33:39.182Z,63.01
2023-02-27T14:36:02.881Z,63.20
2023-02-27T14:38:38.458Z,63.47
2023-02-27T14:41:19.689Z,63.50
2023-02-27T14:43:57.652Z,63.37
2023-02-27T14:46:34.211Z,63.33
2023-02-27T14:49:10.091Z,63.37
2023-02-27T14:51:43.510Z,63.57
2023-02-27T14:54:18.499Z,63.70
2023-02-27T14:57:00.809Z,63.59
2023-02-27T14:59:36.980Z,63.67
2023-02-27T15:02:19.488Z,63.81
2023-02-27T15:04:57.169Z,63.93
2023-02-27T15:07:33.710Z,64.15
2023-02-27T15:10:10.520Z,64.14
2023-02-27T15:12:44.520Z,64.08
2023-02-27T15:15:21.860Z,64.05
2023-02-27T15:17:56.725Z,64.11
2023-02-27T15:20:32.174Z,64.01
2023-02-27T15:23:23.334Z,64.01
2023-02-27T15:25:59.301Z,64.08
2023-02-27T15:28:35.856Z,64.13
2023-02-27T15:31:12.244Z,64.08
2023-02-27T15:33:45.741Z,64.07
2023-02-27T15:36:25.390Z,64.18
2023-02-27T15:39:21.504Z,64.27
2023-02-27T15:41:56.695Z,64.24
2023-02-27T15:44:32.774Z,64.24
2023-02-27T15:47:06.949Z,64.32
2023-02-27T15:49:40.494Z,64.40
2023-02-27T15:52:20.046Z,64.46
2023-02-27T15:54:56.042Z,64.29
2023-02-27T15:57:30.773Z,64.29
2023-02-27T16:00:06.337Z,64.26
2023-02-27T16:02:44.327Z,64.29
2023-02-27T16:05:21.264Z,64.36
2023-02-27T16:07:55.807Z,64.48
2023-02-27T16:10:32.142Z,64.52
2023-02-27T16:13:33.620Z,64.53
2023-02-27T16:16:09.974Z,64.50
2023-02-27T16:18:50.036Z,64.38
2023-02-27T16:21:25.319Z,64.46
2023-02-27T16:24:18.484Z,64.57
2023-02-27T16:26:58.071Z,64.66
2023-02-27T16:29:35.519Z,64.80
2023-02-27T16:32:11.818Z,64.68
2023-02-27T16:34:46.914Z,64.61
2023-02-27T16:37:24.238Z,64.58
2023-02-27T16:39:57.598Z,64.52
2023-02-27T16:42:31.459Z,64.38
2023-02-27T16:45:05.370Z,64.14
2023-02-27T16:47:40.439Z,64.23
2023-02-27T16:50:17.412Z,64.33
2023-02-27T16:52:51.099Z,64.19
2023-02-27T16:55:25.240Z,64.19
2023-02-27T16:57:58.898Z,63.63
2023-02-27T17:00:34.243Z,62.87
2023-02-27T17:03:07.970Z,63.19
2023-02-27T17:05:41.898Z,63.46
2023-02-27T17:08:19.654Z,63.76
2023-02-27T17:10:53.998Z,63.87
2023-02-27T17:13:28.373Z,63.91
2023-02-27T17:16:01.905Z,63.89
2023-02-27T17:18:35.906Z,63.86
2023-02-27T17:21:10.768Z,63.91
2023-02-27T17:23:44.649Z,63.97
2023-02-27T17:26:18.431Z,64.12
2023-02-27T17:28:51.994Z,64.17
2023-02-27T17:31:25.947Z,64.24
2023-02-27T17:33:59.600Z,64.29
2023-02-27T17:36:32.991Z,64.33
2023-02-27T17:39:07.413Z,64.39
2023-02-27T17:41:42.040Z,64.64
2023-02-27T17:44:15.737Z,64.83
2023-02-27T17:46:49.336Z,65.04
2023-02-27T17:49:22.649Z,65.13
2023-02-27T17:51:58.018Z,65.31
2023-02-27T17:54:31.380Z,65.40
2023-02-27T17:57:06.890Z,65.50
2023-02-27T17:59:41.301Z,65.58
2023-02-27T18:02:15.440Z,65.65
2023-02-27T18:04:49.206Z,65.75
2023-02-27T18:07:22.711Z,65.79
2023-02-27T18:09:56.269Z,65.76
2023-02-27T18:12:29.787Z,65.87
2023-02-27T18:15:03.411Z,65.86
2023-02-27T18:17:36.784Z,65.95
2023-02-27T18:20:13.749Z,66.05
2023-02-27T18:22:46.993Z,66.07
2023-02-27T18:25:20.434Z,66.06
2023-02-27T18:27:55.371Z,66.09
2023-02-27T18:30:30.783Z,66.08
2023-02-27T18:33:03.784Z,66.19
2023-02-27T18:35:36.938Z,66.24
2023-02-27T18:38:10.503Z,66.28
2023-02-27T18:40:44.057Z,66.32
2023-02-27T18:43:17.340Z,66.34
2023-02-27T18:45:51.016Z,66.37
2023-02-27T18:48:24.540Z,66.46
2023-02-27T18:51:05.005Z,66.64
2023-02-27T18:53:38.838Z,66.84
2023-02-27T18:56:14.245Z,66.92
2023-02-27T18:58:48.056Z,66.94
2023-02-27T19:01:23.932Z,66.98
2023-02-27T19:04:00.677Z,67.07
2023-02-27T19:06:35.233Z,67.13
2023-02-27T19:09:09.963Z,67.40
2023-02-27T19:11:44.278Z,67.52
2023-02-27T19:14:18.068Z,67.55
2023-02-27T19:16:51.428Z,67.65
2023-02-27T19:19:26.683Z,67.72
2023-02-27T19:22:02.921Z,67.77
2023-02-27T19:24:36.443Z,67.88
2023-02-27T19:27:10.455Z,67.86
2023-02-27T19:29:43.925Z,67.95
2023-02-27T19:32:17.404Z,68.01
2023-02-27T19:34:50.709Z,68.05
2023-02-27T19:37:24.134Z,68.13
2023-02-27T19:39:58.433Z,68.23
2023-02-27T19:42:32.033Z,68.30
2023-02-27T19:45:05.821Z,68.47
2023-02-27T19:47:39.707Z,68.56
2023-02-27T19:50:15.068Z,68.70
2023-02-27T19:52:48.336Z,68.83
2023-02-27T19:55:21.957Z,68.91
2023-02-27T19:57:55.525Z,68.92
2023-02-27T20:00:29.578Z,69.00
2023-02-27T20:03:06.228Z,68.99
2023-02-27T20:05:41.469Z,69.06
2023-02-27T20:08:18.206Z,69.19
2023-02-27T20:10:58.416Z,69.35
2023-02-27T20:13:32.682Z,69.40
2023-02-27T20:16:08.995Z,69.47
2023-02-27T20:18:45.758Z,69.57
2023-02-27T20:21:21.305Z,69.63
2023-02-27T20:23:55.619Z,69.68
2023-02-27T20:26:31.619Z,69.73
2023-02-27T20:29:08.408Z,69.73
2023-02-27T20:31:43.796Z,69.80
2023-02-27T20:34:22.140Z,69.84
2023-02-27T20:36:56.620Z,69.89
2023-02-27T20:39:32.962Z,69.85
2023-02-27T20:42:08.654Z,69.86
2023-02-27T20:44:42.462Z,69.93
2023-02-27T20:47:15.926Z,70.06
2023-02-27T20:49:49.733Z,70.15
2023-02-27T20:52:25.136Z,70.25
2023-02-27T20:54:58.391Z,70.30
2023-02-27T20:57:32.776Z,70.36
2023-02-27T21:00:11.147Z,70.44
2023-02-27T21:02:45.488Z,70.50
2023-02-27T21:05:18.782Z,70.56
2023-02-27T21:07:52.220Z,70.67
2023-02-27T21:10:25.828Z,70.71
2023-02-27T21:12:59.399Z,70.85
2023-02-27T21:15:34.248Z,70.93
2023-02-27T21:18:09.218Z,71.06
2023-02-27T21:20:43.868Z,71.22
2023-02-27T21:23:17.391Z,71.32
2023-02-27T21:25:53.506Z,71.34
2023-02-27T21:28:27.260Z,71.31
2023-02-27T21:31:02.171Z,71.34
2023-02-27T21:33:35.785Z,71.38
2023-02-27T21:36:11.720Z,71.43
2023-02-27T21:38:46.110Z,71.52
2023-02-27T21:41:19.679Z,71.67
2023-02-27T21:43:53.080Z,71.72
2023-02-27T21:46:26.930Z,71.88
2023-02-27T21:49:02.756Z,71.96
2023-02-27T21:51:40.941Z,71.96
2023-02-27T21:54:14.127Z,72.12
2023-02-27T21:56:49.597Z,72.38
2023-02-27T21:59:23.290Z,72.40
2023-02-27T22:01:57.221Z,72.43
2023-02-27T22:04:30.746Z,72.50
2023-02-27T22:07:11.135Z,72.56
2023-02-27T22:09:43.878Z,72.70
2023-02-27T22:12:17.988Z,72.75
2023-02-27T22:14:51.503Z,72.80
2023-02-27T22:17:24.946Z,72.86
2023-02-27T22:19:58.478Z,72.89
2023-02-27T22:22:32.232Z,72.97
2023-02-27T22:25:06.009Z,73.04
2023-02-27T22:27:39.554Z,73.21
2023-02-27T22:30:17.675Z,73.20
2023-02-27T22:32:50.930Z,73.31
2023-02-27T22:35:25.086Z,73.37
2023-02-27T22:37:58.892Z,73.40
2023-02-27T22:40:33.956Z,73.52
2023-02-27T22:43:07.319Z,73.46
2023-02-27T22:45:42.190Z,73.45
2023-02-27T22:48:15.843Z,73.62
2023-02-27T22:50:50.660Z,73.81
2023-02-27T22:53:23.992Z,73.81
2023-02-27T22:55:58.551Z,73.95
2023-02-27T22:58:34.015Z,74.00
2023-02-27T23:01:12.793Z,73.99
2023-02-27T23:03:48.121Z,73.98
2023-02-27T23:06:23.012Z,74.01
2023-02-27T23:08:56.459Z,73.96
2023-02-27T23:11:30.365Z,73.95
2023-02-27T23:14:03.888Z,73.89
2023-02-27T23:16:37.900Z,73.91
2023-02-27T23:19:11.808Z,73.84
2023-02-27T23:21:45.426Z,73.91
2023-02-27T23:24:20.487Z,73.91
2023-02-27T23:26:54.886Z,73.99
2023-02-27T23:29:28.314Z,73.97
2023-02-27T23:32:02.035Z,74.00
2023-02-27T23:34:49.057Z,74.08
2023-02-27T23:37:10.783Z,74.12
2023-02-27T23:39:44.326Z,74.20
2023-02-27T23:42:17.767Z,74.18
2023-02-27T23:45:08.758Z,74.23
2023-02-27T23:47:45.313Z,74.26
2023-02-27T23:50:20.024Z,74.17
2023-02-27T23:52:55.456Z,74.21
2023-02-27T23:55:31.404Z,74.29
2023-02-27T23:58:07.357Z,74.27
